createdAt,value
2023-03-22T00:01:17.305Z,99724.81
2023-03-22T00:03:45.007Z,99722.69
2023-03-22T00:06:12.608Z,99724.94
2023-03-22T00:08:40.324Z,99722.44
2023-03-22T00:11:07.963Z,99721.19
2023-03-22T00:13:35.799Z,99724.44
2023-03-22T00:16:04.453Z,99717.78
2023-03-22T00:18:32.048Z,99715.00
2023-03-22T00:20:59.456Z,99716.03
2023-03-22T00:23:27.570Z,99710.16
2023-03-22T00:25:55.260Z,99712.44
2023-03-22T00:28:22.645Z,99713.06
2023-03-22T00:30:58.232Z,99712.03
2023-03-22T00:33:28.470Z,99711.13
2023-03-22T00:36:06.765Z,99711.41
2023-03-22T00:38:44.936Z,99710.97
2023-03-22T00:41:14.697Z,99710.22
2023-03-22T00:43:45.652Z,99712.84
2023-03-22T00:46:13.322Z,99700.38
2023-03-22T00:48:40.778Z,99710.84
2023-03-22T00:51:08.685Z,99710.91
2023-03-22T00:53:36.984Z,99711.97
2023-03-22T00:56:05.577Z,99713.06
2023-03-22T00:58:35.440Z,99716.34
2023-03-22T01:01:02.863Z,99709.59
2023-03-22T01:03:30.319Z,99715.31
2023-03-22T01:05:58.043Z,99713.97
2023-03-22T01:08:25.462Z,99706.75
2023-03-22T01:10:53.667Z,99703.19
2023-03-22T01:13:21.315Z,99700.53
2023-03-22T01:15:50.897Z,99695.81
2023-03-22T01:18:18.696Z,99695.03
2023-03-22T01:20:46.336Z,99690.56
2023-03-22T01:23:13.789Z,99697.03
2023-03-22T01:25:41.223Z,99689.25
2023-03-22T01:28:08.986Z,99694.66
2023-03-22T01:30:36.969Z,99696.50
2023-03-22T01:33:05.683Z,99692.91
2023-03-22T01:35:34.387Z,99693.12
2023-03-22T01:38:01.812Z,99692.88
2023-03-22T01:40:29.260Z,99687.41
2023-03-22T01:42:57.370Z,99696.41
2023-03-22T01:45:36.415Z,99693.84
2023-03-22T01:48:34.207Z,99687.56
2023-03-22T01:51:07.806Z,99696.75
2023-03-22T01:53:39.351Z,99693.25
2023-03-22T01:56:07.737Z,99689.72
2023-03-22T01:58:36.619Z,99692.59
2023-03-22T02:01:05.451Z,99690.19
2023-03-22T02:04:07.213Z,99690.44
2023-03-22T02:06:38.106Z,99703.44
2023-03-22T02:09:08.188Z,99697.31
2023-03-22T02:11:42.855Z,99700.09
2023-03-22T02:14:17.215Z,99705.31
2023-03-22T02:17:04.491Z,99699.59
2023-03-22T02:19:52.020Z,99712.63
2023-03-22T02:22:53.282Z,99712.19
2023-03-22T02:26:00.017Z,99715.00
2023-03-22T02:29:08.184Z,99718.91
2023-03-22T02:31:54.189Z,99717.44
2023-03-22T02:34:46.200Z,99721.66
2023-03-22T02:37:33.807Z,99719.41
2023-03-22T02:40:12.876Z,99723.56
2023-03-22T02:42:46.290Z,99719.16
2023-03-22T02:45:15.496Z,99722.69
2023-03-22T02:47:50.261Z,99731.97
2023-03-22T02:50:28.720Z,99715.84
2023-03-22T02:53:24.688Z,99725.47
2023-03-22T02:56:02.754Z,99725.28
2023-03-22T02:58:38.134Z,99723.19
2023-03-22T03:01:07.643Z,99716.97
2023-03-22T03:03:37.659Z,99703.22
2023-03-22T03:06:13.612Z,99707.88
2023-03-22T03:08:41.346Z,99712.91
2023-03-22T03:11:09.366Z,99710.09
2023-03-22T03:13:37.123Z,99717.13
2023-03-22T03:16:07.848Z,99721.22
2023-03-22T03:18:48.432Z,99713.44
2023-03-22T03:22:14.602Z,99710.16
2023-03-22T03:25:22.363Z,99707.72
2023-03-22T03:27:52.268Z,99724.50
2023-03-22T03:30:21.878Z,99723.53
2023-03-22T03:32:54.650Z,99734.81
2023-03-22T03:35:37.661Z,99734.87
2023-03-22T03:38:18.680Z,99738.31
2023-03-22T03:40:51.484Z,99735.91
2023-03-22T03:43:18.882Z,99736.19
2023-03-22T03:45:46.781Z,99739.44
2023-03-22T03:48:19.277Z,99738.28
2023-03-22T03:50:47.733Z,99736.44
2023-03-22T03:53:15.066Z,99741.84
2023-03-22T03:55:42.460Z,99741.34
2023-03-22T03:58:10.222Z,99737.41
2023-03-22T04:00:37.881Z,99739.12
2023-03-22T04:03:07.748Z,99736.50
2023-03-22T04:05:36.257Z,99728.72
2023-03-22T04:08:03.694Z,99727.44
2023-03-22T04:10:32.977Z,99731.19
2023-03-22T04:13:00.413Z,99750.66
2023-03-22T04:15:27.970Z,99749.09
2023-03-22T04:17:56.109Z,99747.44
2023-03-22T04:20:26.169Z,99746.66
2023-03-22T04:22:53.577Z,99744.66
2023-03-22T04:25:22.862Z,99742.47
2023-03-22T04:27:51.636Z,99732.91
2023-03-22T04:30:20.158Z,99733.63
2023-03-22T04:32:53.134Z,99740.78
2023-03-22T04:35:21.362Z,99749.81
2023-03-22T04:37:49.386Z,99747.50
2023-03-22T04:40:20.729Z,99750.16
2023-03-22T04:42:48.260Z,99745.38
2023-03-22T04:45:16.287Z,99748.87
2023-03-22T04:47:44.338Z,99746.34
2023-03-22T04:50:11.776Z,99751.41
2023-03-22T04:52:40.584Z,99752.75
2023-03-22T04:55:08.336Z,99750.34
2023-03-22T04:57:36.208Z,99749.84
2023-03-22T05:00:08.360Z,99749.13
2023-03-22T05:02:41.170Z,99752.84
2023-03-22T05:05:09.833Z,99756.66
2023-03-22T05:07:39.230Z,99761.62
2023-03-22T05:10:07.279Z,99762.69
2023-03-22T05:12:35.120Z,99765.06
2023-03-22T05:15:04.310Z,99762.38
2023-03-22T05:17:33.132Z,99755.34
2023-03-22T05:20:08.279Z,99762.53
2023-03-22T05:22:40.619Z,99762.75
2023-03-22T05:25:10.263Z,99765.03
2023-03-22T05:27:39.002Z,99762.69
2023-03-22T05:30:07.501Z,99760.66
2023-03-22T05:32:37.598Z,99768.25
2023-03-22T05:35:05.403Z,99784.31
2023-03-22T05:37:33.306Z,99781.34
2023-03-22T05:40:01.330Z,99766.09
2023-03-22T05:42:30.684Z,99761.00
2023-03-22T05:44:58.132Z,99758.81
2023-03-22T05:47:25.901Z,99754.50
2023-03-22T05:49:53.738Z,99758.44
2023-03-22T05:52:23.126Z,99763.25
2023-03-22T05:54:51.646Z,99768.66
2023-03-22T05:57:19.064Z,99761.62
2023-03-22T05:59:46.540Z,99764.81
2023-03-22T06:02:17.156Z,99769.25
2023-03-22T06:04:44.830Z,99770.00
2023-03-22T06:07:12.887Z,99773.84
2023-03-22T06:09:40.589Z,99785.47
2023-03-22T06:12:08.836Z,99785.19
2023-03-22T06:14:36.547Z,99777.06
2023-03-22T06:17:05.218Z,99789.22
2023-03-22T06:19:32.952Z,99775.69
2023-03-22T06:22:01.808Z,99774.09
2023-03-22T06:24:29.423Z,99780.87
2023-03-22T06:26:57.178Z,99776.53
2023-03-22T06:29:24.792Z,99779.31
2023-03-22T06:31:52.724Z,99783.25
2023-03-22T06:34:20.602Z,99787.53
2023-03-22T06:36:48.543Z,99791.34
2023-03-22T06:39:16.174Z,99791.75
2023-03-22T06:41:44.018Z,99783.56
2023-03-22T06:44:11.382Z,99785.47
2023-03-22T06:46:39.535Z,99789.94
2023-03-22T06:49:08.030Z,99794.75
2023-03-22T06:51:35.621Z,99792.91
2023-03-22T06:54:03.572Z,99790.84
2023-03-22T06:56:31.385Z,99778.53
2023-03-22T06:58:58.820Z,99764.19
2023-03-22T07:01:26.574Z,99774.09
2023-03-22T07:03:54.812Z,99774.06
2023-03-22T07:06:22.334Z,99785.63
2023-03-22T07:08:51.945Z,99807.03
2023-03-22T07:11:19.897Z,99800.88
2023-03-22T07:13:47.736Z,99795.50
2023-03-22T07:16:16.349Z,99799.84
2023-03-22T07:18:45.544Z,99796.13
2023-03-22T07:21:12.899Z,99793.66
2023-03-22T07:23:40.504Z,99799.00
2023-03-22T07:26:09.135Z,99806.00
2023-03-22T07:28:37.385Z,99798.81
2023-03-22T07:31:07.185Z,99792.75
2023-03-22T07:33:36.293Z,99795.94
2023-03-22T07:36:04.725Z,99793.91
2023-03-22T07:38:32.299Z,99791.25
2023-03-22T07:41:00.269Z,99796.88
2023-03-22T07:43:28.366Z,99793.72
2023-03-22T07:45:56.963Z,99803.13
2023-03-22T07:48:28.925Z,99788.59
2023-03-22T07:50:56.707Z,99780.44
2023-03-22T07:53:24.548Z,99783.56
2023-03-22T07:55:52.544Z,99798.28
2023-03-22T07:58:20.513Z,99796.94
2023-03-22T08:00:49.754Z,99793.19
2023-03-22T08:03:20.084Z,99787.97
2023-03-22T08:05:48.795Z,99787.22
2023-03-22T08:08:16.533Z,99775.94
2023-03-22T08:10:49.277Z,99781.81
2023-03-22T08:13:16.931Z,99780.19
2023-03-22T08:15:44.428Z,99793.53
2023-03-22T08:18:13.142Z,99791.69
2023-03-22T08:20:41.347Z,99794.97
2023-03-22T08:23:14.450Z,99796.06
2023-03-22T08:25:43.593Z,99791.69
2023-03-22T08:28:11.920Z,99790.50
2023-03-22T08:30:39.772Z,99789.00
2023-03-22T08:33:07.618Z,99789.00
2023-03-22T08:35:35.071Z,99786.03
2023-03-22T08:38:02.614Z,99792.12
2023-03-22T08:40:31.474Z,99792.97
2023-03-22T08:42:59.898Z,99795.50
2023-03-22T08:45:28.965Z,99800.16
2023-03-22T08:47:57.844Z,99805.41
2023-03-22T08:50:25.731Z,99806.22
2023-03-22T08:52:53.887Z,99797.09
2023-03-22T08:55:22.175Z,99796.59
2023-03-22T08:57:51.794Z,99798.28
2023-03-22T09:00:19.743Z,99800.91
2023-03-22T09:02:48.194Z,99790.59
2023-03-22T09:05:15.716Z,99791.41
2023-03-22T09:07:43.157Z,99781.19
2023-03-22T09:10:11.329Z,99790.75
2023-03-22T09:12:39.413Z,99795.81
2023-03-22T09:15:07.590Z,99799.88
2023-03-22T09:17:36.440Z,99800.75
2023-03-22T09:20:12.509Z,99797.47
2023-03-22T09:22:41.310Z,99800.06
2023-03-22T09:25:12.077Z,99799.19
2023-03-22T09:27:42.100Z,99794.63
2023-03-22T09:30:11.257Z,99790.13
2023-03-22T09:32:39.562Z,99785.81
2023-03-22T09:35:07.351Z,99795.91
2023-03-22T09:37:35.690Z,99790.38
2023-03-22T09:40:05.679Z,99786.19
2023-03-22T09:42:39.631Z,99786.75
2023-03-22T09:45:12.781Z,99785.03
2023-03-22T09:47:44.986Z,99785.81
2023-03-22T09:50:32.052Z,99781.47
2023-03-22T09:53:00.229Z,99788.47
2023-03-22T09:55:37.823Z,99783.31
2023-03-22T09:58:11.447Z,99782.41
2023-03-22T10:00:44.169Z,99785.06
2023-03-22T10:03:36.616Z,99789.22
2023-03-22T10:06:10.267Z,99783.50
2023-03-22T10:09:05.333Z,99786.00
2023-03-22T10:11:46.121Z,99779.84
2023-03-22T10:14:36.210Z,99783.03
2023-03-22T10:17:06.245Z,99790.94
2023-03-22T10:19:35.658Z,99784.31
2023-03-22T10:22:03.964Z,99789.59
2023-03-22T10:24:35.846Z,99784.53
2023-03-22T10:27:03.491Z,99786.88
2023-03-22T10:29:41.482Z,99791.09
2023-03-22T10:32:17.051Z,99784.47
2023-03-22T10:34:44.544Z,99779.53
2023-03-22T10:37:17.402Z,99777.81
2023-03-22T10:39:46.460Z,99773.81
2023-03-22T10:42:16.812Z,99775.62
2023-03-22T10:44:51.985Z,99780.69
2023-03-22T10:47:24.796Z,99778.69
2023-03-22T10:49:54.772Z,99776.81
2023-03-22T10:52:34.837Z,99779.25
2023-03-22T10:55:04.505Z,99772.25
2023-03-22T10:57:32.341Z,99766.69
2023-03-22T10:59:59.756Z,99769.88
2023-03-22T11:02:29.216Z,99768.38
2023-03-22T11:04:59.044Z,99760.25
2023-03-22T11:07:43.440Z,99760.44
2023-03-22T11:10:10.915Z,99756.16
2023-03-22T11:12:44.103Z,99761.12
2023-03-22T11:15:24.008Z,99751.03
2023-03-22T11:17:51.401Z,99747.69
2023-03-22T11:20:19.640Z,99750.44
2023-03-22T11:22:48.043Z,99743.63
2023-03-22T11:25:22.376Z,99728.19
2023-03-22T11:28:17.598Z,99723.91
2023-03-22T11:30:58.467Z,99717.22
2023-03-22T11:33:26.154Z,99713.47
2023-03-22T11:35:55.314Z,99715.81
2023-03-22T11:38:29.862Z,99713.25
2023-03-22T11:41:00.718Z,99706.78
2023-03-22T11:43:33.016Z,99700.78
2023-03-22T11:46:00.722Z,99700.75
2023-03-22T11:48:29.597Z,99703.69
2023-03-22T11:51:13.514Z,99695.56
2023-03-22T11:53:46.470Z,99696.97
2023-03-22T11:56:18.956Z,99698.66
2023-03-22T11:59:11.595Z,99700.72
2023-03-22T12:01:41.483Z,99696.97
2023-03-22T12:04:13.804Z,99694.03
2023-03-22T12:06:41.360Z,99688.37
2023-03-22T12:09:19.260Z,99698.22
2023-03-22T12:11:47.862Z,99695.75
2023-03-22T12:14:22.505Z,99698.97
2023-03-22T12:17:13.057Z,99694.69
2023-03-22T12:19:52.331Z,99696.47
2023-03-22T12:22:22.927Z,99693.94
2023-03-22T12:24:50.526Z,99696.50
2023-03-22T12:27:19.099Z,99694.03
2023-03-22T12:30:04.269Z,99692.97
2023-03-22T12:32:42.096Z,99687.16
2023-03-22T12:35:17.656Z,99692.19
2023-03-22T12:37:51.798Z,99683.47
2023-03-22T12:40:22.986Z,99683.63
2023-03-22T12:42:56.671Z,99688.78
2023-03-22T12:45:27.392Z,99678.09
2023-03-22T12:48:06.279Z,99684.53
2023-03-22T12:50:36.483Z,99691.44
2023-03-22T12:53:04.502Z,99685.34
2023-03-22T12:55:35.897Z,99674.28
2023-03-22T12:58:06.140Z,99681.44
2023-03-22T13:00:40.954Z,99676.41
2023-03-22T13:03:21.008Z,99663.81
2023-03-22T13:05:50.245Z,99670.63
2023-03-22T13:08:21.568Z,99676.72
2023-03-22T13:10:58.020Z,99651.94
2023-03-22T13:13:25.490Z,99651.28
2023-03-22T13:16:08.368Z,99645.72
2023-03-22T13:18:35.694Z,99642.41
2023-03-22T13:21:13.042Z,99637.06
2023-03-22T13:24:05.308Z,99633.78
2023-03-22T13:26:54.490Z,99645.97
2023-03-22T13:29:26.628Z,99641.88
2023-03-22T13:31:57.552Z,99641.75
2023-03-22T13:34:48.402Z,99641.94
2023-03-22T13:37:37.207Z,99635.16
2023-03-22T13:40:14.977Z,99635.03
2023-03-22T13:42:42.620Z,99631.88
2023-03-22T13:45:31.467Z,99630.06
2023-03-22T13:48:12.827Z,99640.22
2023-03-22T13:50:40.602Z,99641.34
2023-03-22T13:53:15.753Z,99635.16
2023-03-22T13:55:46.154Z,99633.84
2023-03-22T13:58:36.575Z,99632.28
2023-03-22T14:01:14.951Z,99626.56
2023-03-22T14:03:43.059Z,99618.97
2023-03-22T14:06:20.968Z,99612.47
2023-03-22T14:08:49.770Z,99618.81
2023-03-22T14:11:21.212Z,99617.44
2023-03-22T14:13:51.397Z,99614.25
2023-03-22T14:16:34.112Z,99612.44
2023-03-22T14:19:02.131Z,99604.53
2023-03-22T14:21:39.247Z,99603.25
